map of GOOD home
GOOD - Facility
Location
City:  Diourbel, Diourbel, Senegal
ICAO:GOOD

Details
Type:Facility
Latitude:14°39'N (14.650)
Longitude:16°14'W (-16.233)
Elevation:30 ft (9 m)
Variation:6.52°W (WMM2015v2 magnetic declination)
0.15° annual change

Time
Time Zone:UTC+0
Local Time:

Weather
METAR:GOOD 041200Z 04004KT CAVOK 29/09 Q1015

Related Locations
Nearby:
Farthest:OLJ: 12262 mi / 19733 km
Olpoi [North West Santo], Espíritu Santo Island, SAM, VU

Find:

   beyond  
but within

Other Information
Maps:
NOTAMs:
Links:
Sources:

  
  • flag of Senegal
  

Sectional Chart

Flight Planning
at skyvector.com

Satellite Image

Google Maps Satellite view

 

Copyright © 2004-2019 Karl L. Swartz. All rights reserved.
The Great Circle Mapper name and logo are trademarks of the Great Circle Mapper.
All other trademarks mentioned herein belong to their respective owners.
Please see credits for attibutions and further copyright information.

  Follow gcmap on Facebook Follow gcmap on Twitter GCmap on LinkedIn

hCard Microformat

Geo Microformat